Detalii statie SADELLI PRODCOM [00001D03]

Toti senzorii

Date Temperatura solului [C]Precipitatii [mm]Voltaj baterie [mV]Leaf Wetness [Min]HC Air temperature [C]HC Relative humidity [%]Punctul de roua [C]
medieminmaxsumaultimatimpmedieminmaxmediemediemin
2018-10-13 15:00:00 20.2 20.1 20.4 0 7186 25.3 24.24 26.42 10.91 -7.7 -10.5
2018-10-13 16:00:00 20.2 20.1 20.4 0 7196 24.32 23.88 25 11.45 -7.8 -9.5
2018-10-13 17:00:00 19.8 19.5 20.2 0 7186 22.86 21.93 23.74 14.35 -6.1 -6.5
2018-10-13 18:00:00 18.9 18.5 19.4 0 6796 19.87 18.13 21.55 18.17 -5.3 -6.2
2018-10-13 19:00:00 17.9 17.5 18.4 0 6796 17.2 16.07 18.05 19.83 -6.3 -6.9
2018-10-13 20:00:00 17 16.7 17.5 0 6776 14.87 14.3 15.87 16.5 0
2018-10-13 21:00:00 16.3 16 16.7 0 6776 15.36 14.88 15.55 0 0 0
2018-10-13 22:00:00 15.7 15.4 16 0 6776 12.46 10.66 15.19 0 0 0
2018-10-13 23:00:00 15.1 14.9 15.5 0 6756 10.96 10.18 12.28 0 0 0
2018-10-14 00:00:00 14.7 14.5 15 0 6756 10.95 10.17 12.58 0 0 0
2018-10-14 01:00:00 14.3 14.1 14.5 0 6748 10.95 9.74 12.2 0 0 0
2018-10-14 02:00:00 13.9 13.8 14.1 0 6738 10.07 9.62 10.34 0 0 0
2018-10-14 03:00:00 13.6 13.4 13.8 0 6738 10.15 9.59 10.6 0 0 0
2018-10-14 04:00:00 13.3 13.1 13.5 0 6728 10.09 9.72 10.44 0 0 0
2018-10-14 05:00:00 13 12.9 13.2 0 6718 9.76 9.5 10.16 0 0 0
2018-10-14 06:00:00 12.8 12.7 13 0 6708 9.23 8.7 9.79 0 0 0
2018-10-14 07:00:00 12.5 12.4 12.8 0 6698 8.7 8.35 9.06 0 0 0
2018-10-14 08:00:00 12.3 12.3 12.4 0 6796 8.77 8.22 10 0 0 0
2018-10-14 09:00:00 12.3 12.2 12.6 0 7206 13.23 10.63 15.48 0 0 0
2018-10-14 10:00:00 13 12.6 13.6 0 7206 17.6 15.9 18.87 0 0 0
2018-10-14 11:00:00 14.5 13.8 15.4 0 7196 19.93 19.17 20.87 0 0 0
2018-10-14 12:00:00 16.3 15.5 17.2 0 7196 21.81 20.75 23.13 0 0 0
2018-10-14 13:00:00 18.1 17.4 18.8 0 7196 22.75 21.41 23.61 0 0 0
2018-10-14 14:00:00 19.4 18.8 19.8 0 7196 22.92 21.81 23.99 0 0 0
2018-10-14 15:00:00 19.6 19.4 19.9 0 7196 23.01 22.28 24.36 0 0 0
2018-10-14 16:00:00 19.8 19.7 19.9 0 7186 22.85 22.45 23.35 0 0 0
2018-10-14 17:00:00 19.4 19 19.8 0 7030 22.05 20.91 23.24 0 0 0
2018-10-14 18:00:00 18.3 17.9 18.8 0 6816 18.47 17.1 20.38 0 0 0
2018-10-14 19:00:00 17.3 16.9 17.9 0 6786 15.73 14.88 16.82 0 0 0
2018-10-14 20:00:00 16.4 16.1 16.9 0 6776 13.02 10.92 15.51 4.92 -4.8 0
2018-10-14 21:00:00 15.6 15.5 15.9 0 6766 10.56 10.02 11.32 1.01 0
2018-10-14 22:00:00 15 14.7 15.5 0 6756 9.97 8.91 11.01 0 0 0
2018-10-14 23:00:00 14.5 14.4 14.7 0 6756 9.87 8.67 10.3 0 0 0
2018-10-15 00:00:00 14 13.9 14.4 0 6748 10.47 7.79 11.48 0 0 0
2018-10-15 01:00:00 13.6 13.5 13.8 0 6728 10.37 9.87 11.01 0 0 0
2018-10-15 02:00:00 13.3 13.2 13.5 0 6728 9.66 9.09 10.08 0 0 0
2018-10-15 03:00:00 13 12.8 13.3 0 6708 7.79 5.65 9.23 0 0 0
2018-10-15 04:00:00 12.6 12.5 12.9 0 6708 6.39 5.74 6.93 0 0 0
2018-10-15 05:00:00 12.2 12.1 12.4 0 6698 8.04 7.31 8.6 0 0 0
2018-10-15 06:00:00 11.9 11.8 12.1 0 6698 7.85 7 8.54 0 0 0
2018-10-15 07:00:00 11.7 11.5 11.9 0 6688 6.27 5.24 7.44 0 0 0
2018-10-15 08:00:00 11.4 11.2 11.5 0 6766 5.65 5.34 6.95 0 0 0
2018-10-15 09:00:00 11.3 11.2 11.5 0 7206 10.15 7.32 13.15 0 0 0
2018-10-15 10:00:00 11.9 11.4 12.6 0 7206 16.62 13.54 19.81 6.37 -1.7 0
2018-10-15 11:00:00 13.5 12.7 14.5 0 7196 20.05 19.16 20.94 17.62 -5.5 -6.5
2018-10-15 12:00:00 15.4 14.6 16.5 0 7196 21.67 20.26 22.68 15.62 -6 -7.7
2018-10-15 13:00:00 17.4 16.6 18.2 0 7196 22.64 21.5 23.66 16.16 -4.7 -6.1
2018-10-15 14:00:00 18.9 18.3 19.3 0 7196 23.75 22.34 24.74 15.13 -4.8 -5.7